createdAt,value
2023-09-12T00:00:53.359Z,67.87
2023-09-12T00:01:56.004Z,66.78
2023-09-12T00:02:58.547Z,66.91
2023-09-12T00:04:01.587Z,67.80
2023-09-12T00:05:05.198Z,67.93
2023-09-12T00:06:08.039Z,68.42
2023-09-12T00:07:10.587Z,67.95
2023-09-12T00:08:14.094Z,68.39
2023-09-12T00:09:16.837Z,68.51
2023-09-12T00:10:19.610Z,69.32
2023-09-12T00:11:23.772Z,69.65
2023-09-12T00:12:26.208Z,69.76
2023-09-12T00:13:29.229Z,70.01
2023-09-12T00:14:32.014Z,69.96
2023-09-12T00:15:34.360Z,70.31
2023-09-12T00:16:36.856Z,70.57
2023-09-12T00:17:39.149Z,70.39
2023-09-12T00:18:42.679Z,69.81
2023-09-12T00:19:45.325Z,70.40
2023-09-12T00:20:47.773Z,70.43
2023-09-12T00:21:50.629Z,70.48
2023-09-12T00:22:54.814Z,70.78
2023-09-12T00:23:57.233Z,70.48
2023-09-12T00:24:59.505Z,70.86
2023-09-12T00:26:02.089Z,71.26
2023-09-12T00:27:06.342Z,70.89
2023-09-12T00:28:08.632Z,70.69
2023-09-12T00:29:12.075Z,70.73
2023-09-12T00:30:16.058Z,70.69
2023-09-12T00:31:18.662Z,70.67
2023-09-12T00:32:21.005Z,70.53
2023-09-12T00:33:23.350Z,70.26
2023-09-12T00:34:27.682Z,70.11
2023-09-12T00:35:31.005Z,69.82
2023-09-12T00:36:33.654Z,69.57
2023-09-12T00:37:36.272Z,69.34
2023-09-12T00:38:38.695Z,69.05
2023-09-12T00:39:41.105Z,68.71
2023-09-12T00:40:44.278Z,68.34
2023-09-12T00:41:46.824Z,68.21
2023-09-12T00:42:49.418Z,66.74
2023-09-12T00:43:51.577Z,68.09
2023-09-12T00:44:54.053Z,67.91
2023-09-12T00:45:57.632Z,68.52
2023-09-12T00:47:02.576Z,68.35
2023-09-12T00:48:07.177Z,68.29
2023-09-12T00:49:10.885Z,68.71
2023-09-12T00:50:15.571Z,68.73
2023-09-12T00:51:21.523Z,69.33
2023-09-12T00:52:26.898Z,68.27
2023-09-12T00:53:31.350Z,67.16
2023-09-12T00:54:33.850Z,67.26
2023-09-12T00:55:39.602Z,67.08
2023-09-12T00:56:43.388Z,67.98
2023-09-12T00:57:46.976Z,68.76
2023-09-12T00:58:52.178Z,68.47
2023-09-12T00:59:56.197Z,68.79
2023-09-12T01:00:59.193Z,68.83
2023-09-12T01:02:03.367Z,70.20
2023-09-12T01:03:06.116Z,69.19
2023-09-12T01:04:20.444Z,68.13
2023-09-12T01:05:16.768Z,67.69
2023-09-12T01:06:22.013Z,68.63
2023-09-12T01:07:25.213Z,68.24
2023-09-12T01:08:28.076Z,69.49
2023-09-12T01:09:33.018Z,69.96
2023-09-12T01:10:35.675Z,68.93
2023-09-12T01:11:38.762Z,69.47
2023-09-12T01:12:41.442Z,69.73
2023-09-12T01:13:43.768Z,70.65
2023-09-12T01:14:46.822Z,70.01
2023-09-12T01:15:49.605Z,70.94
2023-09-12T01:16:52.306Z,70.47
2023-09-12T01:17:55.145Z,70.28
2023-09-12T01:18:57.785Z,71.53
2023-09-12T01:20:05.185Z,72.27
2023-09-12T01:21:26.229Z,72.81
2023-09-12T01:22:49.106Z,73.28
2023-09-12T01:24:16.454Z,72.90
2023-09-12T01:25:48.513Z,72.98
2023-09-12T01:27:00.775Z,72.53
2023-09-12T01:28:06.642Z,72.35
2023-09-12T01:29:11.655Z,72.25
2023-09-12T01:30:17.814Z,72.22
2023-09-12T01:31:20.661Z,72.23
2023-09-12T01:32:23.455Z,72.21
2023-09-12T01:33:26.611Z,71.85
2023-09-12T01:34:29.010Z,72.05
2023-09-12T01:35:32.397Z,71.78
2023-09-12T01:36:35.261Z,71.62
2023-09-12T01:37:38.139Z,71.52
2023-09-12T01:38:41.809Z,71.24
2023-09-12T01:39:44.472Z,70.89
2023-09-12T01:40:50.374Z,70.80
2023-09-12T01:41:55.283Z,70.86
2023-09-12T01:42:59.593Z,70.94
2023-09-12T01:44:03.750Z,70.58
2023-09-12T01:45:10.099Z,70.28
2023-09-12T01:46:15.035Z,70.66
2023-09-12T01:47:20.632Z,70.64
2023-09-12T01:48:27.271Z,70.47
2023-09-12T01:49:30.798Z,70.09
2023-09-12T01:50:36.075Z,70.45
2023-09-12T01:51:38.911Z,70.54
2023-09-12T01:52:42.174Z,70.95
2023-09-12T01:53:46.658Z,71.25
2023-09-12T01:54:51.852Z,71.25
2023-09-12T01:55:56.950Z,70.97
2023-09-12T01:56:59.666Z,70.70
2023-09-12T01:58:02.607Z,70.74
2023-09-12T01:59:06.233Z,70.85
2023-09-12T02:00:12.622Z,70.34
2023-09-12T02:01:16.325Z,70.67
2023-09-12T02:02:19.746Z,70.63
2023-09-12T02:03:22.419Z,70.20
2023-09-12T02:04:24.843Z,70.20
2023-09-12T02:05:27.289Z,70.35
2023-09-12T02:06:30.086Z,70.06
2023-09-12T02:07:36.088Z,69.57
2023-09-12T02:08:39.236Z,69.73
2023-09-12T02:09:42.505Z,69.93
2023-09-12T02:10:45.124Z,68.97
2023-09-12T02:11:48.794Z,68.95
2023-09-12T02:12:51.381Z,68.41
2023-09-12T02:13:53.691Z,67.82
2023-09-12T02:14:55.886Z,67.82
2023-09-12T02:16:04.541Z,68.26
2023-09-12T02:17:08.491Z,68.80
2023-09-12T02:18:13.898Z,68.20
2023-09-12T02:19:16.219Z,68.99
2023-09-12T02:20:20.044Z,68.80
2023-09-12T02:21:23.391Z,68.78
2023-09-12T02:22:25.612Z,68.68
2023-09-12T02:23:27.777Z,68.93
2023-09-12T02:24:30.624Z,69.23
2023-09-12T02:25:33.423Z,69.07
2023-09-12T02:26:36.779Z,69.14
2023-09-12T02:27:39.411Z,69.29
2023-09-12T02:28:42.809Z,70.23
2023-09-12T02:29:45.313Z,70.74
2023-09-12T02:30:47.803Z,71.22
2023-09-12T02:31:50.177Z,70.52
2023-09-12T02:32:52.380Z,70.41
2023-09-12T02:33:57.548Z,70.15
2023-09-12T02:35:00.484Z,70.17
2023-09-12T02:36:03.729Z,69.98
2023-09-12T02:37:06.307Z,70.12
2023-09-12T02:38:08.783Z,70.60
2023-09-12T02:39:11.218Z,70.95
2023-09-12T02:40:15.652Z,71.04
2023-09-12T02:41:18.307Z,70.88
2023-09-12T02:42:20.513Z,71.99
2023-09-12T02:43:23.612Z,71.99
2023-09-12T02:44:25.881Z,72.71
2023-09-12T02:45:28.232Z,73.46
2023-09-12T02:46:31.272Z,73.41
2023-09-12T02:47:34.372Z,74.23
2023-09-12T02:48:36.802Z,74.29
2023-09-12T02:49:38.965Z,74.43
2023-09-12T02:50:43.829Z,74.08
2023-09-12T02:51:47.011Z,74.49
2023-09-12T02:52:49.806Z,74.12
2023-09-12T02:53:52.560Z,73.33
2023-09-12T02:54:54.942Z,74.13
2023-09-12T02:55:57.465Z,74.23
2023-09-12T02:57:00.810Z,73.17
2023-09-12T02:58:03.282Z,72.74
2023-09-12T02:59:06.049Z,73.13
2023-09-12T03:00:09.703Z,72.96
2023-09-12T03:01:20.283Z,72.27
2023-09-12T03:02:23.056Z,72.20
2023-09-12T03:03:25.387Z,72.74
2023-09-12T03:04:29.679Z,72.59
2023-09-12T03:05:32.529Z,72.83
2023-09-12T03:06:36.169Z,72.97
2023-09-12T03:07:39.143Z,73.25
2023-09-12T03:08:42.587Z,73.41
2023-09-12T03:09:45.395Z,73.18
2023-09-12T03:10:51.504Z,73.26
2023-09-12T03:11:53.943Z,73.54
2023-09-12T03:12:56.680Z,74.08
2023-09-12T03:13:59.087Z,73.83
2023-09-12T03:15:01.490Z,73.78
2023-09-12T03:16:04.757Z,74.23
2023-09-12T03:17:07.524Z,74.31
2023-09-12T03:18:11.614Z,74.24
2023-09-12T03:19:14.018Z,74.53
2023-09-12T03:20:16.647Z,74.14
2023-09-12T03:21:19.281Z,74.14
2023-09-12T03:22:21.675Z,74.62
2023-09-12T03:23:24.060Z,73.86
2023-09-12T03:24:26.575Z,74.42
2023-09-12T03:25:28.883Z,74.83
2023-09-12T03:26:31.211Z,74.75
2023-09-12T03:27:33.641Z,74.93
2023-09-12T03:28:36.431Z,75.07
2023-09-12T03:29:39.456Z,74.80
2023-09-12T03:30:42.328Z,74.71
2023-09-12T03:31:46.183Z,75.24
2023-09-12T03:32:48.999Z,75.11
2023-09-12T03:33:52.678Z,75.11
2023-09-12T03:34:55.443Z,75.35
2023-09-12T03:35:57.912Z,75.65
2023-09-12T03:37:00.438Z,76.01
2023-09-12T03:38:03.202Z,75.67
2023-09-12T03:39:07.461Z,75.66
2023-09-12T03:40:11.974Z,75.69
2023-09-12T03:41:14.802Z,76.01
2023-09-12T03:42:17.280Z,76.10
2023-09-12T03:43:19.740Z,76.18
2023-09-12T03:44:22.011Z,76.18
2023-09-12T03:45:25.512Z,76.12
2023-09-12T03:46:28.254Z,75.94
2023-09-12T03:47:30.840Z,75.68
2023-09-12T03:48:35.638Z,75.91
2023-09-12T03:49:37.975Z,75.13
2023-09-12T03:50:40.443Z,75.05
2023-09-12T03:51:42.959Z,75.27
2023-09-12T03:52:45.678Z,75.70
2023-09-12T03:53:50.025Z,75.48
2023-09-12T03:54:52.459Z,75.43
2023-09-12T03:55:54.768Z,75.32
2023-09-12T03:56:57.581Z,75.29
2023-09-12T03:58:00.419Z,75.55
2023-09-12T03:59:03.949Z,75.55
2023-09-12T04:00:09.401Z,75.87
2023-09-12T04:01:22.022Z,76.05
2023-09-12T04:02:27.542Z,76.03
2023-09-12T04:03:29.852Z,75.55
2023-09-12T04:04:32.344Z,75.71
2023-09-12T04:05:35.641Z,75.65
2023-09-12T04:06:40.115Z,75.94
2023-09-12T04:07:43.651Z,75.97
2023-09-12T04:08:46.616Z,75.35
2023-09-12T04:09:49.005Z,74.74
2023-09-12T04:10:53.488Z,74.05
2023-09-12T04:11:57.837Z,74.18
2023-09-12T04:13:00.464Z,74.40
2023-09-12T04:14:03.743Z,74.94
2023-09-12T04:15:07.615Z,74.94
2023-09-12T04:16:11.449Z,74.99
2023-09-12T04:17:17.859Z,75.27
2023-09-12T04:18:20.417Z,75.02
2023-09-12T04:19:22.906Z,75.22
2023-09-12T04:20:26.522Z,75.22
2023-09-12T04:21:29.204Z,75.05
2023-09-12T04:22:32.899Z,74.95
2023-09-12T04:23:35.539Z,74.95
2023-09-12T04:24:38.703Z,74.91
2023-09-12T04:25:46.980Z,74.91
2023-09-12T04:26:51.704Z,74.74
2023-09-12T04:27:54.978Z,73.99
2023-09-12T04:28:57.306Z,74.17
2023-09-12T04:29:59.681Z,74.45
2023-09-12T04:31:05.734Z,74.24
2023-09-12T04:32:08.847Z,74.58
2023-09-12T04:33:11.210Z,74.32
2023-09-12T04:34:13.648Z,74.90
2023-09-12T04:35:16.827Z,74.30
2023-09-12T04:36:22.452Z,74.41
2023-09-12T04:37:24.770Z,74.25
2023-09-12T04:38:27.923Z,73.89
2023-09-12T04:39:30.532Z,74.12
2023-09-12T04:40:36.278Z,74.58
2023-09-12T04:41:39.011Z,75.09
2023-09-12T04:42:41.369Z,74.88
2023-09-12T04:43:45.303Z,74.90
2023-09-12T04:44:47.868Z,75.74
2023-09-12T04:45:51.342Z,75.41
2023-09-12T04:46:54.546Z,75.68
2023-09-12T04:47:56.770Z,75.78
2023-09-12T04:48:59.449Z,75.91
2023-09-12T04:50:02.550Z,75.36
2023-09-12T04:51:05.528Z,74.83
2023-09-12T04:52:08.075Z,74.46
2023-09-12T04:53:11.277Z,74.63
2023-09-12T04:54:13.529Z,75.06
2023-09-12T04:55:15.678Z,74.96
2023-09-12T04:56:18.245Z,74.27
2023-09-12T04:57:21.078Z,74.01
2023-09-12T04:58:23.604Z,74.28
2023-09-12T04:59:26.004Z,74.50
2023-09-12T05:00:28.479Z,73.50
2023-09-12T05:01:30.873Z,73.05
2023-09-12T05:02:33.493Z,73.06
2023-09-12T05:03:37.721Z,73.17
2023-09-12T05:04:40.775Z,73.00
2023-09-12T05:05:46.716Z,72.92
2023-09-12T05:06:49.451Z,72.54
2023-09-12T05:07:54.644Z,72.38
2023-09-12T05:08:57.382Z,72.27
2023-09-12T05:10:00.260Z,72.45
2023-09-12T05:11:03.474Z,72.58
2023-09-12T05:12:06.208Z,71.81
2023-09-12T05:13:09.100Z,71.92
2023-09-12T05:14:11.931Z,71.66
2023-09-12T05:15:14.803Z,71.35
2023-09-12T05:16:17.583Z,71.65
2023-09-12T05:17:20.446Z,71.87
2023-09-12T05:18:25.023Z,71.65
2023-09-12T05:19:27.378Z,71.44
2023-09-12T05:20:29.694Z,71.82
2023-09-12T05:21:32.384Z,71.60
2023-09-12T05:22:34.638Z,71.49
2023-09-12T05:23:37.296Z,71.50
2023-09-12T05:24:40.720Z,71.79
2023-09-12T05:25:43.935Z,71.66
2023-09-12T05:26:48.951Z,71.84
2023-09-12T05:27:51.470Z,72.01
2023-09-12T05:28:53.752Z,71.96
2023-09-12T05:29:56.474Z,72.14
2023-09-12T05:30:59.236Z,72.35
2023-09-12T05:32:02.585Z,72.29
2023-09-12T05:33:05.224Z,71.97
2023-09-12T05:34:08.067Z,72.40
2023-09-12T05:35:21.332Z,72.37
2023-09-12T05:36:17.055Z,71.95
2023-09-12T05:37:21.719Z,71.77
2023-09-12T05:38:24.195Z,72.63
2023-09-12T05:39:26.576Z,72.60
2023-09-12T05:40:30.332Z,72.29
2023-09-12T05:41:32.837Z,71.94
2023-09-12T05:42:35.247Z,72.00
2023-09-12T05:43:37.720Z,72.00
2023-09-12T05:44:40.648Z,71.86
2023-09-12T05:45:45.692Z,72.08
2023-09-12T05:46:50.345Z,72.40
2023-09-12T05:47:53.006Z,72.54
2023-09-12T05:48:55.712Z,72.48
2023-09-12T05:50:01.899Z,72.55
2023-09-12T05:51:05.530Z,72.17
2023-09-12T05:52:07.984Z,72.15
2023-09-12T05:53:10.884Z,72.17
2023-09-12T05:54:16.750Z,71.83
2023-09-12T05:55:19.247Z,71.39
2023-09-12T05:56:21.658Z,71.33
2023-09-12T05:57:24.547Z,70.69
2023-09-12T05:58:27.374Z,70.75
2023-09-12T05:59:32.102Z,71.63
2023-09-12T06:00:34.961Z,71.46
2023-09-12T06:01:37.191Z,71.01
2023-09-12T06:02:40.766Z,70.49
2023-09-12T06:03:43.372Z,70.34
2023-09-12T06:04:46.517Z,70.22
2023-09-12T06:05:49.541Z,70.23
2023-09-12T06:06:52.869Z,70.05
2023-09-12T06:07:56.043Z,69.92
2023-09-12T06:08:59.339Z,69.85
2023-09-12T06:10:03.282Z,70.56
2023-09-12T06:11:06.000Z,70.57
2023-09-12T06:12:08.480Z,70.65
2023-09-12T06:13:13.176Z,70.79
2023-09-12T06:14:15.518Z,71.52
2023-09-12T06:15:18.474Z,71.34
2023-09-12T06:16:21.113Z,70.54
2023-09-12T06:17:23.497Z,70.33
2023-09-12T06:18:28.178Z,69.82
2023-09-12T06:19:31.104Z,69.35
2023-09-12T06:20:34.526Z,69.78
2023-09-12T06:21:36.800Z,69.88
2023-09-12T06:22:39.240Z,70.01
2023-09-12T06:23:42.546Z,70.58
2023-09-12T06:24:45.495Z,70.56
2023-09-12T06:25:48.804Z,70.70
2023-09-12T06:26:51.352Z,70.72
2023-09-12T06:27:53.686Z,70.13
2023-09-12T06:28:57.175Z,70.24
2023-09-12T06:29:59.857Z,70.41
2023-09-12T06:31:02.460Z,70.41
2023-09-12T06:32:06.349Z,70.42
2023-09-12T06:33:08.769Z,70.33
2023-09-12T06:34:11.254Z,69.53
2023-09-12T06:35:13.460Z,69.12
2023-09-12T06:36:16.829Z,68.54
2023-09-12T06:37:19.207Z,68.28
2023-09-12T06:38:23.796Z,68.24
2023-09-12T06:39:26.703Z,67.97
2023-09-12T06:40:29.189Z,67.79
2023-09-12T06:41:31.468Z,68.47
2023-09-12T06:42:33.948Z,68.09
2023-09-12T06:43:37.050Z,69.04
2023-09-12T06:44:39.831Z,68.87
2023-09-12T06:45:45.969Z,68.27
2023-09-12T06:46:48.605Z,67.80
2023-09-12T06:47:51.164Z,67.39
2023-09-12T06:48:53.525Z,66.87
2023-09-12T06:49:56.977Z,67.80
2023-09-12T06:50:59.458Z,67.18
2023-09-12T06:52:02.231Z,66.88
2023-09-12T06:53:07.597Z,66.50
2023-09-12T06:54:09.890Z,66.33
2023-09-12T06:55:12.186Z,66.19
2023-09-12T06:56:15.417Z,66.17
2023-09-12T06:57:17.560Z,66.25
2023-09-12T06:58:19.924Z,66.13
2023-09-12T06:59:22.172Z,65.90
2023-09-12T07:00:25.673Z,65.70
2023-09-12T07:01:28.136Z,65.44
2023-09-12T07:02:30.984Z,65.62
2023-09-12T07:03:34.747Z,65.45
2023-09-12T07:04:37.411Z,65.33
2023-09-12T07:05:40.668Z,65.32
2023-09-12T07:06:43.621Z,65.09
2023-09-12T07:07:46.146Z,64.99
2023-09-12T07:08:48.754Z,65.09
2023-09-12T07:09:51.766Z,64.86
2023-09-12T07:12:07.596Z,64.79
2023-09-12T07:13:10.102Z,64.26
2023-09-12T07:14:13.152Z,64.01
2023-09-12T07:15:15.618Z,63.81
2023-09-12T07:16:19.138Z,63.42
2023-09-12T07:17:21.579Z,63.21
2023-09-12T07:18:24.380Z,62.56
2023-09-12T07:19:26.716Z,62.63
2023-09-12T07:20:28.860Z,62.29
2023-09-12T07:21:33.699Z,62.31
2023-09-12T07:22:36.207Z,62.28
2023-09-12T07:23:38.655Z,62.79
2023-09-12T07:24:41.184Z,61.97
2023-09-12T07:25:43.501Z,61.97
2023-09-12T07:26:47.494Z,61.85
2023-09-12T07:27:50.256Z,61.09
2023-09-12T07:28:52.978Z,60.54
2023-09-12T07:29:55.350Z,60.78
2023-09-12T07:30:58.729Z,60.64
2023-09-12T07:32:02.157Z,60.55
2023-09-12T07:33:05.227Z,60.32
2023-09-12T07:34:09.499Z,60.00
2023-09-12T07:35:12.524Z,59.77
2023-09-12T07:36:15.954Z,59.70
2023-09-12T07:37:19.456Z,58.97
2023-09-12T07:38:22.452Z,59.56
2023-09-12T07:39:25.159Z,59.47
2023-09-12T07:40:28.124Z,60.81
2023-09-12T07:41:33.291Z,60.09
2023-09-12T07:42:35.879Z,59.62
2023-09-12T07:43:38.586Z,60.37
2023-09-12T07:44:40.958Z,60.37
2023-09-12T07:45:43.360Z,59.07
2023-09-12T07:46:45.947Z,58.94
2023-09-12T07:47:49.407Z,59.29
2023-09-12T07:48:53.690Z,58.61
2023-09-12T07:49:57.221Z,58.89
2023-09-12T07:51:02.007Z,58.89
2023-09-12T07:52:05.075Z,58.68
2023-09-12T07:53:08.313Z,58.31
2023-09-12T07:54:10.888Z,58.20
2023-09-12T07:55:13.411Z,57.85
2023-09-12T07:56:15.900Z,58.56
2023-09-12T07:57:18.296Z,58.47
2023-09-12T07:58:21.389Z,57.08
2023-09-12T07:59:23.924Z,58.08
2023-09-12T08:00:26.412Z,56.96
2023-09-12T08:01:28.984Z,56.90
2023-09-12T08:02:31.508Z,56.45
2023-09-12T08:03:36.623Z,56.64
2023-09-12T08:04:39.289Z,56.34
2023-09-12T08:05:41.867Z,56.20
2023-09-12T08:06:56.990Z,56.25
2023-09-12T08:07:48.548Z,56.00
2023-09-12T08:08:50.953Z,56.08
2023-09-12T08:09:55.471Z,55.89
2023-09-12T08:10:58.456Z,55.58
2023-09-12T08:12:00.643Z,56.39
2023-09-12T08:13:03.970Z,55.19
2023-09-12T08:14:06.342Z,55.03
2023-09-12T08:15:10.826Z,54.13
2023-09-12T08:16:14.507Z,54.49
2023-09-12T08:17:17.667Z,55.02
2023-09-12T08:18:20.614Z,54.12
2023-09-12T08:19:23.936Z,54.08
2023-09-12T08:20:27.801Z,53.84
2023-09-12T08:21:31.467Z,53.72
2023-09-12T08:22:37.864Z,54.58
2023-09-12T08:23:40.368Z,54.23
2023-09-12T08:24:44.015Z,53.24
2023-09-12T08:25:46.932Z,52.33
2023-09-12T08:26:50.758Z,51.79
2023-09-12T08:27:53.378Z,52.71
2023-09-12T08:28:56.044Z,51.37
2023-09-12T08:29:58.538Z,52.99
2023-09-12T08:31:00.942Z,51.11
2023-09-12T08:32:03.921Z,50.94
2023-09-12T08:33:07.448Z,51.30
2023-09-12T08:34:09.910Z,49.71
2023-09-12T08:35:14.114Z,49.93
2023-09-12T08:36:17.200Z,49.76
2023-09-12T08:37:19.668Z,49.58
2023-09-12T08:38:21.843Z,49.80
2023-09-12T08:39:26.767Z,51.20
2023-09-12T08:40:30.985Z,49.06
2023-09-12T08:41:34.456Z,48.67
2023-09-12T08:42:45.049Z,50.35
2023-09-12T08:43:48.947Z,49.80
2023-09-12T08:44:51.247Z,48.74
2023-09-12T08:45:54.271Z,49.21
2023-09-12T08:46:58.491Z,49.18
2023-09-12T08:48:02.534Z,48.60
2023-09-12T08:49:07.552Z,48.86
2023-09-12T08:50:13.608Z,48.92
2023-09-12T08:51:15.970Z,48.50
2023-09-12T08:52:18.227Z,48.03
2023-09-12T08:53:22.398Z,48.00
2023-09-12T08:54:24.736Z,47.68
2023-09-12T08:55:27.234Z,50.37
2023-09-12T08:56:29.973Z,50.54
2023-09-12T08:57:34.110Z,47.82
2023-09-12T08:58:36.959Z,46.55
2023-09-12T08:59:42.742Z,46.94
2023-09-12T09:00:45.544Z,46.79
2023-09-12T09:01:50.595Z,46.67
2023-09-12T09:02:53.761Z,46.61
2023-09-12T09:03:57.511Z,45.74
2023-09-12T09:05:04.640Z,45.78
2023-09-12T09:06:10.204Z,46.36
2023-09-12T09:07:14.631Z,45.57
2023-09-12T09:08:19.345Z,44.61
2023-09-12T09:09:24.092Z,44.94
2023-09-12T09:10:38.336Z,46.31
2023-09-12T09:11:33.326Z,47.55
2023-09-12T09:12:36.933Z,46.07
2023-09-12T09:13:39.783Z,45.17
2023-09-12T09:14:42.882Z,44.78
2023-09-12T09:15:45.568Z,45.11
2023-09-12T09:16:47.951Z,45.82
2023-09-12T09:17:51.708Z,43.35
2023-09-12T09:19:03.920Z,43.40
2023-09-12T09:20:10.666Z,43.15
2023-09-12T09:21:19.163Z,42.85
2023-09-12T09:22:23.655Z,44.29
2023-09-12T09:23:26.515Z,44.74
2023-09-12T09:24:29.018Z,43.41
2023-09-12T09:25:31.649Z,45.43
2023-09-12T09:26:51.742Z,43.93
2023-09-12T09:27:54.962Z,44.99
2023-09-12T09:29:06.092Z,43.14
2023-09-12T09:30:09.734Z,43.51
2023-09-12T09:31:14.320Z,43.30
2023-09-12T09:32:22.049Z,43.13
2023-09-12T09:33:24.832Z,43.22
2023-09-12T09:34:33.367Z,42.28
2023-09-12T09:35:36.532Z,42.68
2023-09-12T09:36:45.380Z,41.83
2023-09-12T09:37:47.879Z,41.30
2023-09-12T09:38:50.460Z,43.17
2023-09-12T09:39:53.045Z,43.25
2023-09-12T09:41:58.667Z,42.14
2023-09-12T09:43:02.038Z,42.57
2023-09-12T09:44:08.985Z,41.97
2023-09-12T09:45:11.930Z,42.26
2023-09-12T09:46:18.730Z,42.24
2023-09-12T09:47:21.988Z,43.75
2023-09-12T09:48:29.212Z,43.76
2023-09-12T09:49:37.463Z,42.87
2023-09-12T09:50:40.446Z,42.22
2023-09-12T09:51:45.912Z,40.69
2023-09-12T09:52:57.043Z,41.19
2023-09-12T09:54:01.834Z,40.44
2023-09-12T09:55:14.130Z,41.72
2023-09-12T09:56:17.759Z,40.97
2023-09-12T09:57:26.783Z,40.95
2023-09-12T09:58:31.211Z,42.22
2023-09-12T09:59:40.109Z,40.37
2023-09-12T10:00:47.755Z,40.64
2023-09-12T10:02:02.458Z,40.44
2023-09-12T10:03:22.300Z,40.59
2023-09-12T10:05:54.172Z,40.98
2023-09-12T10:07:15.694Z,39.22
2023-09-12T10:08:20.582Z,39.77
2023-09-12T10:09:25.658Z,40.34
2023-09-12T10:10:31.514Z,40.78
2023-09-12T10:11:36.257Z,41.39
2023-09-12T10:12:42.343Z,40.30
2023-09-12T10:15:01.702Z,39.99
2023-09-12T10:16:05.885Z,39.21
2023-09-12T10:17:11.109Z,39.15
2023-09-12T10:19:28.696Z,37.78
2023-09-12T10:20:47.902Z,40.78
2023-09-12T10:22:03.702Z,40.74
2023-09-12T10:23:11.916Z,38.97
2023-09-12T10:24:16.398Z,39.84
2023-09-12T10:25:19.048Z,38.99
2023-09-12T10:26:24.039Z,39.37
2023-09-12T10:27:27.014Z,37.51
2023-09-12T10:28:29.837Z,39.08
2023-09-12T10:29:32.556Z,38.31
2023-09-12T10:30:37.288Z,38.63
2023-09-12T10:31:40.594Z,38.57
2023-09-12T10:32:46.850Z,39.59
2023-09-12T10:33:51.714Z,37.68
2023-09-12T10:34:56.869Z,38.11
2023-09-12T10:36:01.442Z,37.37
2023-09-12T10:37:05.926Z,39.45
2023-09-12T10:38:09.879Z,40.43
2023-09-12T10:39:13.217Z,39.38
2023-09-12T10:40:18.129Z,39.27
2023-09-12T10:41:23.399Z,38.16
2023-09-12T10:42:30.462Z,39.07
2023-09-12T10:43:36.335Z,39.09
2023-09-12T10:44:39.304Z,37.47
2023-09-12T10:45:42.275Z,38.18
2023-09-12T10:46:48.943Z,38.27
2023-09-12T10:47:51.991Z,38.37
2023-09-12T10:48:55.221Z,37.10
2023-09-12T10:49:57.765Z,36.26
2023-09-12T10:51:02.526Z,35.52
2023-09-12T10:52:05.803Z,36.48
2023-09-12T10:53:12.703Z,37.02
2023-09-12T10:55:37.580Z,35.66
2023-09-12T10:56:41.227Z,36.08
2023-09-12T10:58:05.090Z,36.65
2023-09-12T10:59:10.154Z,37.45
2023-09-12T11:00:13.906Z,36.71
2023-09-12T11:01:27.989Z,37.63
2023-09-12T11:02:39.886Z,37.63
2023-09-12T11:03:42.902Z,34.59
2023-09-12T11:04:45.542Z,34.84
2023-09-12T11:05:54.465Z,34.81
2023-09-12T11:06:58.811Z,35.39
2023-09-12T11:08:04.271Z,34.64
2023-09-12T11:09:20.545Z,35.07
2023-09-12T11:10:23.564Z,34.78
2023-09-12T11:11:25.911Z,34.90
2023-09-12T11:12:37.769Z,34.67
2023-09-12T11:13:44.559Z,34.59
2023-09-12T11:15:08.984Z,34.67
2023-09-12T11:17:29.471Z,34.92
2023-09-12T11:18:31.833Z,35.66
2023-09-12T11:19:49.846Z,35.61
2023-09-12T11:21:00.844Z,35.02
2023-09-12T11:22:06.726Z,34.34
2023-09-12T11:23:12.506Z,35.41
2023-09-12T11:24:16.346Z,36.57
2023-09-12T11:25:23.552Z,35.48
2023-09-12T11:26:26.267Z,34.53
2023-09-12T11:27:34.691Z,34.88
2023-09-12T11:28:37.450Z,35.46
2023-09-12T11:29:41.318Z,34.48
2023-09-12T11:30:53.861Z,34.45
2023-09-12T11:32:00.085Z,35.52
2023-09-12T11:33:06.257Z,34.50
2023-09-12T11:34:11.214Z,36.58
2023-09-12T11:35:15.088Z,33.49
2023-09-12T11:36:20.148Z,33.76
2023-09-12T11:37:27.239Z,33.50
2023-09-12T11:38:32.385Z,33.61
2023-09-12T11:39:36.814Z,32.61
2023-09-12T11:40:42.966Z,32.96
2023-09-12T11:41:45.326Z,32.53
2023-09-12T11:42:50.461Z,32.91
2023-09-12T11:43:53.441Z,32.98
2023-09-12T11:44:56.536Z,33.56
2023-09-12T11:46:01.211Z,33.84
2023-09-12T11:47:06.512Z,32.43
2023-09-12T11:48:09.682Z,33.82
2023-09-12T11:49:12.703Z,33.71
2023-09-12T11:50:32.647Z,33.41
2023-09-12T11:51:36.055Z,34.20
2023-09-12T11:52:39.358Z,32.95
2023-09-12T11:53:42.265Z,32.59
2023-09-12T11:54:46.308Z,32.61
2023-09-12T11:55:54.578Z,33.59
2023-09-12T11:56:58.940Z,33.39
2023-09-12T11:58:02.485Z,31.58
2023-09-12T11:59:05.177Z,32.60
2023-09-12T12:00:11.321Z,32.45
2023-09-12T12:01:17.311Z,31.75
2023-09-12T12:02:20.052Z,32.91
2023-09-12T12:03:25.085Z,32.33
2023-09-12T12:04:29.443Z,32.03
2023-09-12T12:05:35.792Z,30.42
2023-09-12T12:06:40.562Z,30.90
2023-09-12T12:07:45.559Z,30.45
2023-09-12T12:08:48.231Z,30.70
2023-09-12T12:09:51.645Z,29.58
2023-09-12T12:10:55.296Z,29.82
2023-09-12T12:12:01.930Z,30.34
2023-09-12T12:13:04.986Z,30.42
2023-09-12T12:14:12.488Z,30.29
2023-09-12T12:15:15.099Z,29.96
2023-09-12T12:16:18.612Z,31.03
2023-09-12T12:17:22.290Z,30.56
2023-09-12T12:18:25.235Z,31.28
2023-09-12T12:19:28.274Z,31.39
2023-09-12T12:20:30.918Z,31.55
2023-09-12T12:21:34.275Z,31.22
2023-09-12T12:22:40.874Z,29.55
2023-09-12T12:23:44.984Z,29.93
2023-09-12T12:24:48.357Z,30.16
2023-09-12T12:25:50.757Z,30.12
2023-09-12T12:26:57.806Z,29.94
2023-09-12T12:28:00.974Z,30.31
2023-09-12T12:29:05.577Z,29.74
2023-09-12T12:30:14.218Z,29.38
2023-09-12T12:31:17.651Z,29.81
2023-09-12T12:32:21.583Z,29.52
2023-09-12T12:34:48.381Z,28.08
2023-09-12T12:35:43.763Z,28.92
2023-09-12T12:35:45.464Z,29.01
2023-09-12T12:36:53.297Z,28.95
2023-09-12T12:38:00.849Z,28.79
2023-09-12T12:38:59.546Z,26.99
2023-09-12T12:40:04.883Z,28.50
2023-09-12T12:41:07.393Z,28.93
2023-09-12T12:42:10.171Z,29.13
2023-09-12T12:43:20.696Z,28.59
2023-09-12T12:44:23.596Z,28.70
2023-09-12T12:45:27.020Z,29.47
2023-09-12T12:46:29.852Z,29.49
2023-09-12T12:47:34.597Z,29.75
2023-09-12T12:48:37.797Z,28.86
2023-09-12T12:49:40.763Z,29.53
2023-09-12T12:50:43.929Z,29.93
2023-09-12T12:51:47.916Z,29.08
2023-09-12T12:52:50.576Z,29.16
2023-09-12T12:53:55.187Z,29.26
2023-09-12T12:56:19.641Z,27.31
2023-09-12T12:57:22.174Z,25.90
2023-09-12T12:58:24.778Z,27.60
2023-09-12T12:59:27.151Z,27.60
2023-09-12T13:00:30.323Z,28.79
2023-09-12T13:01:35.452Z,28.79
2023-09-12T13:02:38.894Z,28.64
2023-09-12T13:03:43.094Z,28.89
2023-09-12T13:04:46.559Z,27.54
2023-09-12T13:05:49.095Z,28.34
2023-09-12T13:06:51.514Z,28.63
2023-09-12T13:07:54.451Z,27.83
2023-09-12T13:09:00.756Z,27.64
2023-09-12T13:10:05.157Z,28.35
2023-09-12T13:11:09.326Z,27.90
2023-09-12T13:12:11.836Z,27.57
2023-09-12T13:13:14.285Z,28.12
2023-09-12T13:14:17.659Z,28.12
2023-09-12T13:15:20.477Z,27.54
2023-09-12T13:16:23.596Z,28.11
2023-09-12T13:17:26.884Z,27.03
2023-09-12T13:18:29.173Z,27.71
2023-09-12T13:19:32.188Z,27.92
2023-09-12T13:20:35.133Z,27.57
2023-09-12T13:21:38.228Z,27.84
2023-09-12T13:22:40.919Z,27.34
2023-09-12T13:23:44.256Z,27.70
2023-09-12T13:24:49.270Z,27.62
2023-09-12T13:25:52.103Z,27.66
2023-09-12T13:26:54.588Z,27.64
2023-09-12T13:27:57.058Z,26.93
2023-09-12T13:28:59.632Z,26.68
2023-09-12T13:30:03.346Z,26.88
2023-09-12T13:31:05.876Z,27.14
2023-09-12T13:32:08.185Z,26.68
2023-09-12T13:33:12.091Z,27.13
2023-09-12T13:34:14.720Z,27.13
2023-09-12T13:35:17.563Z,27.52
2023-09-12T13:36:20.322Z,27.29
2023-09-12T13:37:22.930Z,26.85
2023-09-12T13:38:26.963Z,27.14
2023-09-12T13:39:30.284Z,26.78
2023-09-12T13:40:33.459Z,26.33
2023-09-12T13:41:35.743Z,26.76
2023-09-12T13:42:38.302Z,27.99
2023-09-12T13:43:41.450Z,27.49
2023-09-12T13:44:44.175Z,26.22
2023-09-12T13:45:47.298Z,26.81
2023-09-12T13:46:50.119Z,26.89
2023-09-12T13:47:54.096Z,26.22
2023-09-12T13:48:59.224Z,25.59
2023-09-12T13:50:02.105Z,26.28
2023-09-12T13:51:04.188Z,25.00
2023-09-12T13:52:07.177Z,25.33
2023-09-12T13:53:09.614Z,26.26
2023-09-12T13:54:15.205Z,26.03
2023-09-12T13:55:29.666Z,26.43